Aérodrome :
LOGIN :

S'inscrire | Disclaimer

   EN    FR    IT 

 










Légende :    VFR   VFR Marginal   IFR   IFR Intensif   IFR Très Intensif
Visi : 
Plafond : 
>= 8 km
>= 3000ft
5 à 8 km
1000 à 3000 ft
1500m à 5 km
500 à 1000 ft
800 à 1500m
200 à 500 ft
< 800m
< 200 ft
Symboles :   Orages  Brouillard  Fortes neiges  Fortes précipitations  Vent > 20 kt
SIGMETs :   Divers  Orages  Givrage  Turbulence  Onde Orograph.  Cendres Volcan.






- Altitude de l'aérodrome : -15 ft
- Code IATA : RTM


EHRD - Rotterdam Zestienhoven

DERNIER METAR :
  • 131525Z AUTO 25011KT 220V280 9999 BKN029 OVC033 16/11 Q1012 NOSIG

METARs EXPIRÉS :
  • 131455Z AUTO 26012KT 230V300 9999 BKN035/// OVC040/// 16/11 Q1012 NOSIG
  • 131425Z AUTO 25012KT 200V290 9999 FEW023/// SCT031/// OVC036/// 17/11 Q1012 NOSIG
  • 131355Z AUTO 26012KT 220V290 9999 FEW021/// BKN025/// OVC030/// 16/11 Q1012 NOSIG
  • 131325Z AUTO 26012KT 240V300 9999 SCT023/// OVC030/// 16/11 Q1012 NOSIG
  • 131255Z AUTO 25014KT 220V290 9999 FEW018/// BKN031/// OVC036/// 17/12 Q1012 NOSIG
  • 131225Z AUTO 26011KT 230V300 9999 BKN015/// BKN023/// OVC027/// 15/12 Q1012 NOSIG
  • 131155Z AUTO 26012KT 220V300 9999 SCT021/// BKN026/// OVC031/// 15/12 Q1012 NOSIG
  • 131125Z AUTO 26012KT 230V300 9999 FEW016/// SCT020/// BKN027/// 15/13 Q1011 NOSIG
  • 131055Z AUTO 25013KT 210V290 9999 FEW010/// SCT012/// BKN015/// 15/13 Q1011 TEMPO 6000 SHRA SCT018CB

TAF TAF EHRD
Valide du 13 à 12h jusqu'au 14 à 18h UTC


131111Z 1312/1418 25014KT 9999 SCT018 BKN025
PROB40
TEMPO 1312/1315 6000 SHRA BKN014 SCT018CB
BECMG 1316/1319 20008KT
BECMG 1407/1410 25014KT



MET'MAP, la Météo Aéronautique d'un coup d'oeil ! - Copyright ORBIFLY Décembre 2007 - Disclaimer

ORBIFLY MET'MAP TEAM :

Programmation & Développement : Alexandra Zaïnal
Sur une idée originale de : Baudouin d'Aumeries
Soutien technique & logistique : Manuel Goepfert
Assistance : Marc-Olivier Méhu




SOURCES & CREDITS :

   NOAA